Time;durP1;ratioP1;P1;durP2;ratioP2;P2;SDS_P1;SDS_P2;PMS_P1;PMS_P2;Temp;Humidity;BMP_temperature;BMP_pressure;BME280_temperature;BME280_humidity;BME280_pressure;Samples;Min_cycle;Max_cycle;Signal;HPM_P1;HPM_P2
2021/10/18 00:00:44;;;;;;;;;;;;;;;8.18;100.00;101529.66;5114687;28;19931;-69
2021/10/18 00:03:11;;;;;;;;;;;;;;;8.19;100.00;101531.41;5114717;28;19942;-69
2021/10/18 00:05:37;;;;;;;;;;;;;;;8.20;100.00;101534.97;5114475;28;20439;-69
2021/10/18 00:08:03;;;;;;;;;;;;;;;8.18;100.00;101535.06;5113233;28;20470;-69
2021/10/18 00:10:31;;;;;;;;;;;;;;;8.18;100.00;101539.59;5114431;28;19971;-70
2021/10/18 00:12:57;;;;;;;;;;;;;;;8.17;100.00;101545.97;5114510;28;20022;-69
2021/10/18 00:15:24;;;;;;;;;;;;;;;8.17;100.00;101538.72;5114322;28;19970;-69
2021/10/18 00:17:50;;;;;;;;;;;;;;;8.16;100.00;101545.13;5114336;28;19967;-69
2021/10/18 00:20:17;;;;;;;;;;;;;;;8.16;100.00;101550.53;5114594;28;19963;-69
2021/10/18 00:22:43;;;;;;;;;;;;;;;8.15;100.00;101554.19;5114209;28;19982;-69
2021/10/18 00:25:10;;;;;;;;;;;;;;;8.15;100.00;101556.88;5112939;28;20352;-69
2021/10/18 00:27:38;;;;;;;;;;;;;;;8.13;100.00;101549.81;5113782;28;20037;-69
2021/10/18 00:30:05;;;;;;;;;;;;;;;8.11;100.00;101549.91;5114115;28;19923;-69
2021/10/18 00:32:31;;;;;;;;;;;;;;;8.10;100.00;101553.56;5114214;28;19967;-70
2021/10/18 00:34:58;;;;;;;;;;;;;;;8.09;100.00;101551.81;5114261;28;19931;-70
2021/10/18 00:37:24;;;;;;;;;;;;;;;8.09;100.00;101557.22;5113847;28;19963;-70
2021/10/18 00:39:50;;;;;;;;;;;;;;;8.10;100.00;101541.91;5113882;28;19966;-69
2021/10/18 00:42:16;;;;;;;;;;;;;;;8.11;100.00;101538.19;5113950;28;19928;-69
2021/10/18 00:44:44;;;;;;;;;;;;;;;8.09;100.00;101543.69;5113349;28;19962;-69
2021/10/18 00:47:14;;;;;;;;;;;;;;;8.10;100.00;101548.16;5113512;28;19924;-69
2021/10/18 00:49:41;;;;;;;;;;;;;;;8.12;100.00;101542.66;5113681;28;19969;-69
2021/10/18 00:52:07;;;;;;;;;;;;;;;8.08;100.00;101541.94;5114044;28;20011;-69
2021/10/18 00:54:33;;;;;;;;;;;;;;;8.09;100.00;101545.56;5113584;28;20325;-70
2021/10/18 00:57:00;;;;;;;;;;;;;;;8.09;100.00;101540.13;5113421;28;19958;-69
2021/10/18 00:59:26;;;;;;;;;;;;;;;8.10;100.00;101547.31;5113447;28;20001;-69
2021/10/18 01:01:54;;;;;;;;;;;;;;;8.08;100.00;101544.66;5113473;28;20391;-69
2021/10/18 01:04:20;;;;;;;;;;;;;;;8.10;100.00;101553.56;5113278;28;20014;-70
2021/10/18 01:06:47;;;;;;;;;;;;;;;8.09;100.00;101553.66;5113233;28;20039;-70
2021/10/18 01:09:13;;;;;;;;;;;;;;;8.07;100.00;101552.88;5113539;28;19955;-69
2021/10/18 01:11:39;;;;;;;;;;;;;;;8.04;100.00;101546.69;5113314;28;20145;-70
2021/10/18 01:14:07;;;;;;;;;;;;;;;8.06;100.00;101549.31;5113152;28;20480;-69
2021/10/18 01:16:33;;;;;;;;;;;;;;;8.08;100.00;101550.06;5113094;28;19930;-69
2021/10/18 01:19:10;;;;;;;;;;;;;;;8.07;100.00;101545.66;5113145;28;19955;-70
2021/10/18 01:21:38;;;;;;;;;;;;;;;8.09;100.00;101559.06;5112893;28;19959;-70
2021/10/18 01:24:04;;;;;;;;;;;;;;;8.08;100.00;101543.81;5113086;28;19959;-69
2021/10/18 01:26:31;;;;;;;;;;;;;;;8.09;100.00;101548.25;5112931;28;19963;-69
2021/10/18 01:28:57;;;;;;;;;;;;;;;8.08;100.00;101544.66;5113026;28;20425;-69
2021/10/18 01:31:23;;;;;;;;;;;;;;;8.09;100.00;101545.56;5113016;28;19964;-69
2021/10/18 01:33:49;;;;;;;;;;;;;;;8.10;100.00;101548.16;5113096;28;20014;-70
2021/10/18 01:36:16;;;;;;;;;;;;;;;8.10;100.00;101540.03;5112789;28;20395;-69
2021/10/18 01:38:44;;;;;;;;;;;;;;;8.11;100.00;101549.03;5112275;28;20359;-70
2021/10/18 01:41:10;;;;;;;;;;;;;;;8.14;100.00;101555.13;5112881;28;19975;-69
2021/10/18 01:43:36;;;;;;;;;;;;;;;8.16;100.00;101555.94;5109282;28;19924;-69
2021/10/18 01:46:03;;;;;;;;;;;;;;;8.15;100.00;101559.59;5112496;28;20015;-69
2021/10/18 01:48:29;;;;;;;;;;;;;;;8.14;100.00;101556.97;5112577;28;19931;-69
2021/10/18 01:50:56;;;;;;;;;;;;;;;8.12;100.00;101557.03;5112603;28;19963;-69
2021/10/18 01:53:22;;;;;;;;;;;;;;;8.09;100.00;101554.53;5112596;28;19959;-69
2021/10/18 01:55:50;;;;;;;;;;;;;;;8.06;100.00;101557.41;5111784;28;20435;-69
2021/10/18 01:58:16;;;;;;;;;;;;;;;8.04;100.00;101548.50;5112234;28;19959;-69
2021/10/18 02:00:43;;;;;;;;;;;;;;;8.05;100.00;101548.41;5112693;28;20022;-69
2021/10/18 02:03:09;;;;;;;;;;;;;;;8.03;100.00;101555.75;5110949;28;20314;-69
2021/10/18 02:05:35;;;;;;;;;;;;;;;8.05;100.00;101550.25;5112213;28;19963;-69
2021/10/18 02:08:02;;;;;;;;;;;;;;;8.04;100.00;101556.63;5112170;28;20022;-70
2021/10/18 02:10:28;;;;;;;;;;;;;;;8.05;100.00;101553.81;5111019;28;19924;-70
2021/10/18 02:12:56;;;;;;;;;;;;;;;8.07;100.00;101556.47;5112224;28;20237;-70
2021/10/18 02:15:23;;;;;;;;;;;;;;;8.07;100.00;101548.34;5112031;28;20406;-70
2021/10/18 02:17:50;;;;;;;;;;;;;;;8.08;100.00;101543.81;5111748;28;19967;-69
2021/10/18 02:20:16;;;;;;;;;;;;;;;8.07;100.00;101548.34;5112192;28;19951;-70
2021/10/18 02:22:43;;;;;;;;;;;;;;;8.08;100.00;101546.50;5111984;28;19967;-70
2021/10/18 02:25:11;;;;;;;;;;;;;;;8.09;100.00;101551.81;5111913;28;20023;-69
2021/10/18 02:27:37;;;;;;;;;;;;;;;8.12;100.00;101559.75;5111784;28;19962;-69
2021/10/18 02:30:05;;;;;;;;;;;;;;;8.10;100.00;101558.97;5112003;28;19955;-69
2021/10/18 02:32:32;;;;;;;;;;;;;;;8.11;100.00;101559.84;5112004;28;19969;-69
2021/10/18 02:35:00;;;;;;;;;;;;;;;8.09;100.00;101562.63;5111543;28;19927;-69
2021/10/18 02:37:26;;;;;;;;;;;;;;;8.12;100.00;101562.44;5111740;28;20027;-69
2021/10/18 02:39:52;;;;;;;;;;;;;;;8.13;100.00;101564.19;5111666;28;20456;-69
2021/10/18 02:42:19;;;;;;;;;;;;;;;8.15;100.00;101564.09;5111808;28;20006;-69
2021/10/18 02:44:45;;;;;;;;;;;;;;;8.13;100.00;101558.78;5110474;28;19971;-69
2021/10/18 02:47:13;;;;;;;;;;;;;;;8.13;100.00;101553.38;5111743;28;20018;-69
2021/10/18 02:49:39;;;;;;;;;;;;;;;8.13;100.00;101550.69;5111741;28;20026;-69
2021/10/18 02:52:06;;;;;;;;;;;;;;;8.16;100.00;101541.50;5111654;28;19924;-69
2021/10/18 02:54:35;;;;;;;;;;;;;;;8.16;100.00;101555.94;5111300;28;20033;-70
2021/10/18 02:57:01;;;;;;;;;;;;;;;8.17;100.00;101552.25;5111501;28;19924;-69
2021/10/18 02:59:28;;;;;;;;;;;;;;;8.19;100.00;101557.56;5111658;28;20363;-69
2021/10/18 03:01:54;;;;;;;;;;;;;;;8.17;100.00;101549.53;5111949;28;19963;-69
2021/10/18 03:04:21;;;;;;;;;;;;;;;8.17;100.00;101551.38;5111612;28;19959;-70
2021/10/18 03:06:49;;;;;;;;;;;;;;;8.18;100.00;101554.00;5112297;28;19996;-69
2021/10/18 03:09:16;;;;;;;;;;;;;;;8.18;100.00;101551.28;5115888;28;20398;-69
2021/10/18 03:11:44;;;;;;;;;;;;;;;8.17;100.00;101552.25;5115497;28;19924;-69
2021/10/18 03:14:10;;;;;;;;;;;;;;;8.16;100.00;101555.03;5115496;28;19970;-69
2021/10/18 03:16:37;;;;;;;;;;;;;;;8.17;100.00;101560.34;5115392;28;20354;-69
2021/10/18 03:19:03;;;;;;;;;;;;;;;8.19;100.00;101558.44;5115778;28;19923;-69
2021/10/18 03:21:31;;;;;;;;;;;;;;;8.19;100.00;101558.44;5115478;28;19959;-70
2021/10/18 03:23:57;;;;;;;;;;;;;;;8.21;100.00;101559.22;5115390;28;19923;-69
2021/10/18 03:26:23;;;;;;;;;;;;;;;8.22;100.00;101562.81;5113964;28;19963;-69
2021/10/18 03:28:50;;;;;;;;;;;;;;;8.20;100.00;101559.31;5115458;28;20030;-69
2021/10/18 03:31:16;;;;;;;;;;;;;;;8.20;100.00;101554.78;5115074;28;19964;-69
2021/10/18 03:33:45;;;;;;;;;;;;;;;8.21;100.00;101564.63;5115171;28;20292;-69
2021/10/18 03:36:11;;;;;;;;;;;;;;;8.24;100.00;101568.13;5115082;28;20036;-69
2021/10/18 03:38:39;;;;;;;;;;;;;;;8.21;100.00;101561.91;5115086;28;20395;-69
2021/10/18 03:41:05;;;;;;;;;;;;;;;8.23;100.00;101566.38;5115317;28;19959;-69
2021/10/18 03:43:31;;;;;;;;;;;;;;;8.21;100.00;101551.09;5115120;28;20022;-69
2021/10/18 03:46:00;;;;;;;;;;;;;;;8.21;100.00;101556.50;5112475;28;19955;-68
2021/10/18 03:48:26;;;;;;;;;;;;;;;8.21;100.00;101553.81;5114224;28;20015;-71
2021/10/18 03:50:52;;;;;;;;;;;;;;;8.24;100.00;101568.13;5114816;28;19969;-71
2021/10/18 03:53:19;;;;;;;;;;;;;;;8.25;100.00;101575.28;5115096;28;20015;-71
2021/10/18 03:55:47;;;;;;;;;;;;;;;8.25;100.00;101572.59;5114660;28;20002;-71
2021/10/18 03:58:13;;;;;;;;;;;;;;;8.25;100.00;101576.16;5114653;28;19962;-71
2021/10/18 04:00:39;;;;;;;;;;;;;;;8.25;100.00;101580.69;5114771;28;20030;-71
2021/10/18 04:03:06;;;;;;;;;;;;;;;8.26;100.00;101582.41;5113519;28;19967;-71
2021/10/18 04:05:32;;;;;;;;;;;;;;;8.26;100.00;101582.41;5114613;28;20027;-71
2021/10/18 04:07:59;;;;;;;;;;;;;;;8.28;100.00;101586.78;5114464;28;19963;-71
2021/10/18 04:10:25;;;;;;;;;;;;;;;8.27;100.00;101586.88;5114200;28;20455;-71
2021/10/18 04:12:52;;;;;;;;;;;;;;;8.27;100.00;101579.66;5114808;28;19959;-71
2021/10/18 04:15:19;;;;;;;;;;;;;;;8.26;100.00;101572.50;5114735;28;20395;-71
2021/10/18 04:17:46;;;;;;;;;;;;;;;8.28;100.00;101572.38;5114292;28;19923;-71
2021/10/18 04:20:12;;;;;;;;;;;;;;;8.27;100.00;101570.63;5113748;28;19924;-71
2021/10/18 04:22:39;;;;;;;;;;;;;;;8.28;100.00;101578.66;5114313;28;20010;-71
2021/10/18 04:25:06;;;;;;;;;;;;;;;8.27;100.00;101571.53;5114020;28;20420;-71
2021/10/18 04:27:32;;;;;;;;;;;;;;;8.28;100.00;101575.09;5113722;28;19968;-71
2021/10/18 04:30:00;;;;;;;;;;;;;;;8.25;100.00;101572.59;5114290;28;19959;-71
2021/10/18 04:32:26;;;;;;;;;;;;;;;8.23;100.00;101566.38;5114355;28;20328;-73
2021/10/18 04:34:52;;;;;;;;;;;;;;;8.21;100.00;101561.06;5114356;28;19959;-72
2021/10/18 04:37:19;;;;;;;;;;;;;;;8.20;100.00;101572.84;5113936;28;20356;-74
2021/10/18 04:39:45;;;;;;;;;;;;;;;8.19;100.00;101577.38;5113851;28;19928;-73
2021/10/18 04:42:11;;;;;;;;;;;;;;;8.19;100.00;101569.28;5113537;28;19959;-73
2021/10/18 04:44:38;;;;;;;;;;;;;;;8.19;100.00;101573.78;5113885;27;19992;-73
2021/10/18 04:47:06;;;;;;;;;;;;;;;8.19;100.00;101579.19;5113633;28;19924;-74
2021/10/18 04:49:33;;;;;;;;;;;;;;;8.18;100.00;101572.94;5112412;28;20280;-73
2021/10/18 04:51:59;;;;;;;;;;;;;;;8.18;100.00;101578.34;5113811;28;20421;-73
2021/10/18 04:54:25;;;;;;;;;;;;;;;8.18;100.00;101583.75;5113832;28;19985;-73
2021/10/18 04:56:51;;;;;;;;;;;;;;;8.18;100.00;101583.75;5113563;28;19963;-73
2021/10/18 04:59:18;;;;;;;;;;;;;;;8.17;100.00;101587.41;5113821;28;19960;-73
2021/10/18 05:01:44;;;;;;;;;;;;;;;8.18;100.00;101594.56;5113280;28;19966;-73
2021/10/18 05:04:11;;;;;;;;;;;;;;;8.20;100.00;101598.06;5113520;28;19959;-74
2021/10/18 05:06:38;;;;;;;;;;;;;;;8.20;100.00;101594.47;5113440;28;19963;-73
2021/10/18 05:09:05;;;;;;;;;;;;;;;8.18;100.00;101589.16;5113159;28;20018;-74
2021/10/18 05:11:31;;;;;;;;;;;;;;;8.20;100.00;101589.06;5113225;28;19938;-73
2021/10/18 05:13:57;;;;;;;;;;;;;;;8.18;100.00;101591.84;5113153;28;19955;-73
2021/10/18 05:16:24;;;;;;;;;;;;;;;8.17;100.00;101595.50;5113348;28;20018;-73
2021/10/18 05:18:50;;;;;;;;;;;;;;;8.17;100.00;101600.06;5113044;28;20422;-74
2021/10/18 05:21:18;;;;;;;;;;;;;;;8.18;100.00;101593.69;5113195;28;20366;-73
2021/10/18 05:23:44;;;;;;;;;;;;;;;8.17;100.00;101600.91;5112967;28;19959;-73
2021/10/18 05:26:10;;;;;;;;;;;;;;;8.17;100.00;101597.34;5112977;28;20428;-72
2021/10/18 05:28:36;;;;;;;;;;;;;;;8.16;100.00;101593.78;5112931;28;19924;-72
2021/10/18 05:31:03;;;;;;;;;;;;;;;8.14;100.00;101598.41;5112078;28;19923;-73
2021/10/18 05:33:29;;;;;;;;;;;;;;;8.13;100.00;101606.63;5112887;28;19924;-73
2021/10/18 05:35:55;;;;;;;;;;;;;;;8.13;100.00;101609.31;5112676;28;19986;-73
2021/10/18 05:38:23;;;;;;;;;;;;;;;8.11;100.00;101606.69;5112393;28;20019;-73
2021/10/18 05:40:49;;;;;;;;;;;;;;;8.13;100.00;101612.03;5112698;28;19955;-74
2021/10/18 05:43:16;;;;;;;;;;;;;;;8.13;100.00;101607.47;5112644;28;19924;-73
2021/10/18 05:45:42;;;;;;;;;;;;;;;8.14;100.00;101602.94;5112424;28;19935;-74
2021/10/18 05:48:10;;;;;;;;;;;;;;;8.16;100.00;101595.59;5112450;28;20312;-73
2021/10/18 05:50:39;;;;;;;;;;;;;;;8.17;100.00;101603.63;5112644;28;19969;-73
2021/10/18 05:53:05;;;;;;;;;;;;;;;8.19;100.00;101599.03;5109349;28;19931;-73
2021/10/18 05:55:33;;;;;;;;;;;;;;;8.22;100.00;101606.09;5112301;28;19963;-73
2021/10/18 05:58:00;;;;;;;;;;;;;;;8.23;100.00;101613.25;5112135;27;20027;-73
2021/10/18 06:00:27;;;;;;;;;;;;;;;8.25;100.00;101624.84;5112630;28;19927;-69
2021/10/18 06:02:54;;;;;;;;;;;;;;;8.31;100.00;101623.59;5112335;28;20390;-69
2021/10/18 06:05:20;;;;;;;;;;;;;;;8.37;100.00;101631.38;5112383;28;20296;-69
2021/10/18 06:07:47;;;;;;;;;;;;;;;8.42;100.00;101625.69;5111913;28;19928;-69
2021/10/18 06:10:14;;;;;;;;;;;;;;;8.45;100.00;101623.72;5112429;28;20467;-69
2021/10/18 06:12:42;;;;;;;;;;;;;;;8.49;100.00;101630.69;5111986;28;19974;-69
2021/10/18 06:15:08;;;;;;;;;;;;;;;8.54;100.00;101633.16;5112052;28;20011;-69
2021/10/18 06:17:35;;;;;;;;;;;;;;;8.58;100.00;101633.81;5111967;28;19967;-69
2021/10/18 06:20:02;;;;;;;;;;;;;;;8.62;100.00;101646.22;5112109;28;19978;-68
2021/10/18 06:22:28;;;;;;;;;;;;;;;8.65;100.00;101646.06;5112021;28;19974;-69
2021/10/18 06:24:54;;;;;;;;;;;;;;;8.73;100.00;101649.19;5112136;28;19927;-69
2021/10/18 06:27:23;;;;;;;;;;;;;;;8.77;100.00;101639.91;5111869;28;20395;-69
2021/10/18 06:29:51;;;;;;;;;;;;;;;8.83;100.00;101644.97;5111878;28;19977;-69
2021/10/18 06:32:17;;;;;;;;;;;;;;;8.86;100.00;101644.78;5111778;28;20395;-69
2021/10/18 06:34:43;;;;;;;;;;;;;;;8.87;100.00;101646.53;5111807;28;19951;-69
2021/10/18 06:37:10;;;;;;;;;;;;;;;8.87;100.00;101643.81;5111876;28;20018;-68
2021/10/18 06:39:36;;;;;;;;;;;;;;;8.87;100.00;101646.53;5110716;28;19924;-68
2021/10/18 06:42:02;;;;;;;;;;;;;;;8.85;100.00;101643.03;5111596;28;20402;-70
2021/10/18 06:44:29;;;;;;;;;;;;;;;8.84;100.00;101641.28;5111596;28;19976;-70
2021/10/18 06:46:56;;;;;;;;;;;;;;;8.86;100.00;101644.78;5111528;28;19962;-71
2021/10/18 06:49:24;;;;;;;;;;;;;;;8.89;100.00;101659.97;5111495;28;20031;-71
2021/10/18 06:51:52;;;;;;;;;;;;;;;8.90;100.00;101661.72;5111501;28;19963;-71
2021/10/18 06:54:20;;;;;;;;;;;;;;;8.91;100.00;101668.00;5111673;28;19923;-71
2021/10/18 06:56:46;;;;;;;;;;;;;;;8.93;100.00;101672.38;5111156;28;19967;-71
2021/10/18 06:59:12;;;;;;;;;;;;;;;8.93;100.00;101658.81;5111372;28;19962;-71
2021/10/18 07:01:39;;;;;;;;;;;;;;;8.92;100.00;101661.63;5111509;28;20383;-71
2021/10/18 07:04:06;;;;;;;;;;;;;;;8.91;100.00;101666.16;5111454;28;19960;-70
2021/10/18 07:06:33;;;;;;;;;;;;;;;8.89;100.00;101659.97;5111189;28;20014;-70
2021/10/18 07:08:59;;;;;;;;;;;;;;;8.93;100.00;101666.09;5111161;28;19967;-71
2021/10/18 07:11:26;;;;;;;;;;;;;;;8.99;100.00;101663.00;5111533;28;19963;-71
2021/10/18 07:13:53;;;;;;;;;;;;;;;9.04;100.00;101669.00;5111219;28;19924;-71
2021/10/18 07:16:19;;;;;;;;;;;;;;;9.13;100.00;101657.63;5111143;28;19959;-71
2021/10/18 07:18:45;;;;;;;;;;;;;;;9.27;100.00;101664.03;5111470;28;19931;-71
2021/10/18 07:21:13;;;;;;;;;;;;;;;9.42;100.00;101664.94;5111405;28;19924;-70
2021/10/18 07:23:39;;;;;;;;;;;;;;;9.57;100.00;101665.81;5111410;28;19976;-71
2021/10/18 07:26:07;;;;;;;;;;;;;;;9.71;100.00;101672.16;5110854;28;20354;-71
2021/10/18 07:28:35;;;;;;;;;;;;;;;9.83;100.00;101667.78;5110946;28;19931;-71
2021/10/18 07:31:01;;;;;;;;;;;;;;;9.96;100.00;101670.59;5111342;28;19955;-71
2021/10/18 07:33:27;;;;;;;;;;;;;;;10.08;100.00;101676.22;5111207;28;19931;-71
2021/10/18 07:35:55;;;;;;;;;;;;;;;10.08;100.00;101677.06;5111006;28;19967;-71
2021/10/18 07:38:24;;;;;;;;;;;;;;;10.14;100.00;101687.53;5111066;28;19924;-71
2021/10/18 07:40:50;;;;;;;;;;;;;;;10.19;100.00;101679.09;5111121;28;19947;-71
2021/10/18 07:43:16;;;;;;;;;;;;;;;10.20;100.00;101684.41;5111049;28;19923;-71
2021/10/18 07:45:42;;;;;;;;;;;;;;;10.20;100.00;101680.84;5110699;28;20445;-71
2021/10/18 07:48:09;;;;;;;;;;;;;;;10.25;100.00;101686.84;5107664;28;20355;-71
2021/10/18 07:50:35;;;;;;;;;;;;;;;10.29;100.00;101682.06;5109936;28;19969;-71
2021/10/18 07:53:01;;;;;;;;;;;;;;;10.38;100.00;101681.50;5111186;28;19959;-71
2021/10/18 07:55:33;;;;;;;;;;;;;;;10.44;100.00;101682.97;5114300;28;20462;-71
2021/10/18 07:57:59;;;;;;;;;;;;;;;10.55;100.00;101691.28;5114689;28;19923;-71
2021/10/18 08:00:26;;;;;;;;;;;;;;;10.66;100.00;101685.13;5114704;28;20026;-71
2021/10/18 08:02:52;;;;;;;;;;;;;;;10.76;100.00;101682.69;5114265;28;19966;-71
2021/10/18 08:05:18;;;;;;;;;;;;;;;10.92;100.00;101677.09;5114384;28;20018;-71
2021/10/18 08:07:46;;;;;;;;;;;;;;;11.13;100.00;101681.06;5114260;28;19924;-71
2021/10/18 08:10:13;;;;;;;;;;;;;;;11.25;100.00;101673.03;5114337;28;19924;-71
2021/10/18 08:12:41;;;;;;;;;;;;;;;11.44;100.00;101667.16;5114278;28;19950;-71
2021/10/18 08:15:07;;;;;;;;;;;;;;;11.64;100.00;101676.69;5114518;28;20018;-71
2021/10/18 08:17:33;;;;;;;;;;;;;;;11.80;100.00;101676.44;5114013;28;20430;-71
2021/10/18 08:20:00;;;;;;;;;;;;;;;12.02;100.00;101683.97;5114140;28;19959;-73
2021/10/18 08:22:26;;;;;;;;;;;;;;;12.11;100.00;101680.56;5114407;28;20011;-73
2021/10/18 08:24:52;;;;;;;;;;;;;;;12.13;100.00;101681.34;5114197;28;20085;-69
2021/10/18 08:27:18;;;;;;;;;;;;;;;12.21;100.00;101683.50;5114079;28;19959;-70
2021/10/18 08:29:46;;;;;;;;;;;;;;;12.23;100.00;101679.69;5113935;28;20027;-69
2021/10/18 08:32:12;;;;;;;;;;;;;;;12.38;100.00;101688.56;5114200;28;20396;-69
2021/10/18 08:34:39;;;;;;;;;;;;;;;12.50;100.00;101683.22;5114063;28;20191;-69
2021/10/18 08:37:05;;;;;;;;;;;;;;;12.70;100.00;101690.75;5113765;28;19963;-69
2021/10/18 08:42:17;;;;;;;;;;;;;;;13.35;100.00;101674.06;5113971;28;20391;-71
2021/10/18 08:44:43;;;;;;;;;;;;;;;13.45;100.00;101666.91;5113847;28;19928;-71
2021/10/18 08:47:12;;;;;;;;;;;;;;;13.47;100.00;101666.78;5113732;28;19977;-71
2021/10/18 08:49:38;;;;;;;;;;;;;;;14.13;100.00;101664.25;5113640;28;20295;-73
2021/10/18 08:52:05;;;;;;;;;;;;;;;14.68;100.00;101655.22;5113863;28;19963;-73
2021/10/18 08:54:32;;;;;;;;;;;;;;;14.33;100.00;101659.88;5113366;28;20470;-74
2021/10/18 08:56:58;;;;;;;;;;;;;;;15.23;100.00;101658.72;5113512;28;20004;-73
2021/10/18 08:59:25;;;;;;;;;;;;;;;15.46;100.00;101653.13;5113613;28;20023;-74
2021/10/18 09:01:52;;;;;;;;;;;;;;;15.31;100.00;101652.59;5113556;28;19965;-73
2021/10/18 09:04:24;;;;;;;;;;;;;;;15.10;100.00;101660.78;5113352;28;19951;-70
2021/10/18 09:06:52;;;;;;;;;;;;;;;15.54;100.00;101660.69;5113409;28;20364;-70
2021/10/18 09:09:23;;;;;;;;;;;;;;;15.40;100.00;101656.38;5113540;28;19923;-70
2021/10/18 09:11:49;;;;;;;;;;;;;;;15.69;100.00;101659.31;5113489;28;19931;-70
2021/10/18 09:14:15;;;;;;;;;;;;;;;15.50;100.00;101664.66;5113159;28;20014;-70
2021/10/18 09:16:43;;;;;;;;;;;;;;;15.49;100.00;101663.78;5113155;28;20019;-71
2021/10/18 09:19:10;;;;;;;;;;;;;;;15.15;100.00;101672.22;5113396;28;19923;-70
2021/10/18 09:21:39;;;;;;;;;;;;;;;15.78;100.00;101657.63;5113172;28;19946;-70
2021/10/18 09:24:06;;;;;;;;;;;;;;;16.45;100.00;101666.28;5113344;28;19966;-70
2021/10/18 09:26:33;;;;;;;;;;;;;;;16.70;100.00;101667.63;5113047;28;19924;-70
2021/10/18 09:29:04;;;;;;;;;;;;;;;16.42;100.00;101663.78;5112919;28;19963;-70
2021/10/18 09:31:30;;;;;;;;;;;;;;;15.69;100.00;101675.72;5112932;28;19959;-71
2021/10/18 09:34:03;;;;;;;;;;;;;;;14.96;100.00;101675.63;5113044;28;19967;-70
2021/10/18 09:36:30;;;;;;;;;;;;;;;14.38;100.00;101679.47;5112996;28;19959;-71
2021/10/18 09:39:18;;;;;;;;;;;;;;;14.44;100.00;101678.09;5109729;28;19976;-73
2021/10/18 09:41:45;;;;;;;;;;;;;;;14.94;100.00;101672.16;5112827;28;19963;-74
2021/10/18 09:44:18;;;;;;;;;;;;;;;15.40;100.00;101665.47;5112609;28;20026;-74
2021/10/18 09:47:02;;;;;;;;;;;;;;;15.75;100.00;101660.63;5112302;27;19959;-74
2021/10/18 10:53:20;;;;;;;;;;;;;;;16.87;100.00;101674.25;5111590;28;20325;-70
2021/10/18 10:55:47;;;;;;;;;;;;;;;16.45;100.00;101669.03;5111306;28;19979;-70
2021/10/18 10:58:33;;;;;;;;;;;;;;;16.03;100.00;101671.91;5111391;28;19928;-70
2021/10/18 11:01:00;;;;;;;;;;;;;;;15.95;100.00;101668.97;5111148;28;19931;-70
2021/10/18 11:03:39;;;;;;;;;;;;;;;16.04;100.00;101673.63;5111335;28;20060;-70
2021/10/18 11:06:06;;;;;;;;;;;;;;;16.03;100.00;101667.31;5110206;28;19927;-70
2021/10/18 11:08:33;;;;;;;;;;;;;;;16.12;100.00;101664.75;5111165;28;20019;-70
2021/10/18 11:11:06;;;;;;;;;;;;;;;16.11;100.00;101666.59;5111349;28;19924;-70
2021/10/18 11:13:32;;;;;;;;;;;;;;;16.30;100.00;101671.28;5111274;28;19979;-70
2021/10/18 11:16:00;;;;;;;;;;;;;;;16.26;100.00;101660.72;5111080;28;19955;-69
2021/10/18 11:18:27;;;;;;;;;;;;;;;16.46;100.00;101657.06;5111287;28;20023;-70
2021/10/18 11:20:53;;;;;;;;;;;;;;;16.66;100.00;101657.06;5111275;28;20022;-70
2021/10/18 11:23:19;;;;;;;;;;;;;;;16.89;100.00;101647.63;5111404;28;19958;-70
2021/10/18 11:25:45;;;;;;;;;;;;;;;17.06;100.00;101654.25;5111033;28;20422;-70
2021/10/18 11:28:12;;;;;;;;;;;;;;;16.98;100.00;101656.88;5111226;28;19955;-70
2021/10/18 11:30:40;;;;;;;;;;;;;;;17.05;100.00;101651.66;5110323;28;19930;-70
2021/10/18 11:33:10;;;;;;;;;;;;;;;17.11;100.00;101650.22;5115214;28;20390;-70
2021/10/18 11:35:37;;;;;;;;;;;;;;;17.38;100.00;101642.09;5114880;28;20221;-70
2021/10/18 11:38:05;;;;;;;;;;;;;;;17.62;99.55;101651.69;5114835;28;19924;-71
2021/10/18 11:40:32;;;;;;;;;;;;;;;17.79;94.10;101647.31;5115035;28;19924;-70
2021/10/18 11:42:59;;;;;;;;;;;;;;;17.49;89.53;101648.41;5114773;28;19970;-71
2021/10/18 11:45:27;;;;;;;;;;;;;;;17.40;96.39;101644.69;5114906;28;19977;-71
2021/10/18 11:47:53;;;;;;;;;;;;;;;17.04;95.71;101650.78;5114682;28;20402;-72
2021/10/18 11:50:24;;;;;;;;;;;;;;;16.80;95.84;101647.59;5113570;28;19955;-72
2021/10/18 11:52:52;;;;;;;;;;;;;;;17.00;99.45;101649.34;5114576;28;19928;-71
2021/10/18 11:55:20;;;;;;;;;;;;;;;17.11;99.27;101639.25;5114893;28;19962;-71
2021/10/18 11:57:48;;;;;;;;;;;;;;;17.42;97.17;101637.16;5114483;28;19959;-70
2021/10/18 12:00:18;;;;;;;;;;;;;;;17.75;97.62;101640.41;5114738;28;19955;-70
2021/10/18 12:02:46;;;;;;;;;;;;;;;17.61;92.02;101644.50;5114608;28;19967;-70
2021/10/18 12:05:13;;;;;;;;;;;;;;;17.37;95.03;101647.72;5114487;28;19924;-70
2021/10/18 12:07:41;;;;;;;;;;;;;;;16.83;94.65;101639.91;5114302;28;19966;-70
2021/10/18 12:10:11;;;;;;;;;;;;;;;16.81;100.00;101644.69;5113193;28;19984;-70
2021/10/18 12:12:37;;;;;;;;;;;;;;;16.77;98.85;101639.63;5114553;28;19993;-70
2021/10/18 12:15:05;;;;;;;;;;;;;;;16.63;100.00;101640.91;5114788;28;19961;-70
2021/10/18 12:17:32;;;;;;;;;;;;;;;16.59;100.00;101644.97;5114486;28;20011;-70
2021/10/18 12:20:00;;;;;;;;;;;;;;;16.45;100.00;101646.22;5114912;28;19955;-71
2021/10/18 12:22:27;;;;;;;;;;;;;;;16.37;100.00;101653.28;5114715;28;19931;-72
2021/10/18 12:25:01;;;;;;;;;;;;;;;16.08;100.00;101649.59;5114569;28;20429;-71
2021/10/18 12:27:28;;;;;;;;;;;;;;;15.71;100.00;101645.47;5114231;28;20030;-72
2021/10/18 12:29:54;;;;;;;;;;;;;;;15.62;100.00;101641.72;5114074;28;20498;-73
2021/10/18 12:32:20;;;;;;;;;;;;;;;15.36;100.00;101639.38;5114353;28;19974;-74
2021/10/18 12:34:46;;;;;;;;;;;;;;;15.53;100.00;101634.31;5113879;28;19967;-74
2021/10/18 12:37:13;;;;;;;;;;;;;;;15.61;100.00;101634.50;5114145;28;20043;-74
2021/10/18 12:39:44;;;;;;;;;;;;;;;15.86;100.00;101633.22;5113433;28;19924;-74
2021/10/18 12:42:13;;;;;;;;;;;;;;;15.78;100.00;101633.00;5114243;28;20019;-74
2021/10/18 12:44:40;;;;;;;;;;;;;;;15.60;100.00;101631.91;5113909;28;19979;-74
2021/10/18 12:47:11;;;;;;;;;;;;;;;15.72;100.00;101630.81;5112647;28;19928;-74
2021/10/18 12:49:38;;;;;;;;;;;;;;;15.83;100.00;101632.59;5113673;28;20306;-74
2021/10/18 12:52:05;;;;;;;;;;;;;;;16.12;100.00;101632.72;5114092;28;20019;-75
2021/10/18 12:54:38;;;;;;;;;;;;;;;16.46;100.00;101637.88;5113769;28;19969;-74
2021/10/18 12:57:05;;;;;;;;;;;;;;;16.51;100.00;101631.97;5113560;28;19924;-74
2021/10/18 12:59:35;;;;;;;;;;;;;;;16.63;100.00;101629.97;5113744;28;19958;-74
2021/10/18 13:02:19;;;;;;;;;;;;;;;16.51;97.13;101634.69;5113759;28;19928;-74
2021/10/18 13:04:58;;;;;;;;;;;;;;;16.54;98.85;101631.66;5113567;28;19935;-74
2021/10/18 13:07:25;;;;;;;;;;;;;;;16.46;100.00;101632.41;5113397;28;19965;-74
2021/10/18 13:09:51;;;;;;;;;;;;;;;16.46;100.00;101629.66;5113576;28;20022;-74
2021/10/18 13:12:17;;;;;;;;;;;;;;;16.57;100.00;101625.91;5113591;28;19967;-74
2021/10/18 13:14:45;;;;;;;;;;;;;;;16.71;100.00;101632.84;5113268;28;19934;-74
2021/10/18 13:17:12;;;;;;;;;;;;;;;16.86;100.00;101627.81;5112118;28;19973;-69
2021/10/18 13:19:39;;;;;;;;;;;;;;;16.88;96.82;101612.94;5112193;28;19927;-70
2021/10/18 13:22:05;;;;;;;;;;;;;;;17.24;98.01;101615.13;5113707;28;20366;-70
2021/10/18 13:24:32;;;;;;;;;;;;;;;17.23;96.55;101607.88;5113012;28;19924;-70
2021/10/18 13:26:58;;;;;;;;;;;;;;;17.28;95.09;101612.94;5113176;28;19959;-71
2021/10/18 13:29:25;;;;;;;;;;;;;;;16.93;92.30;101615.28;5113049;28;20019;-69
2021/10/18 13:31:52;;;;;;;;;;;;;;;16.81;94.54;101611.78;5109784;28;19987;-69
2021/10/18 13:34:19;;;;;;;;;;;;;;;16.54;96.29;101610.63;5113146;28;19973;-69
2021/10/18 13:36:45;;;;;;;;;;;;;;;16.30;99.69;101612.88;5112842;28;20375;-69
2021/10/18 13:39:11;;;;;;;;;;;;;;;16.20;100.00;101607.38;5112782;28;19985;-69